Time,TemperatureF,DewpointF,PressureIn,WindDirection,WindDirectionDegrees,WindSpeedMPH,WindSpeedGustMPH,Humidity,HourlyPrecipIn,Conditions,Clouds,dailyrainin,SoftwareType,DateUTC
2013-05-11 00:01:00,64.8,56.3,29.90,SSW,209,0.2,1.2,74,0.00,RA,,0.00,WeatherDisplay:10.37,2013-05-11 04:01:00,
2013-05-11 00:06:00,64.9,56.0,29.90,WSW,240,0.0,0.0,73,0.00,RA,,0.00,WeatherDisplay:10.37,2013-05-11 04:06:00,
2013-05-11 00:11:00,64.9,56.0,29.90,SSW,211,0.7,3.5,73,0.00,SCT,,0.00,WeatherDisplay:10.37,2013-05-11 04:11:00,
2013-05-11 00:16:00,64.8,55.9,29.90,WSW,258,0.1,1.2,73,0.00,FEW,,0.00,WeatherDisplay:10.37,2013-05-11 04:16:00,
2013-05-11 00:21:00,64.7,55.8,29.90,SW,218,0.0,1.2,73,0.00,FEW,,0.00,WeatherDisplay:10.37,2013-05-11 04:21:00,
2013-05-11 00:26:00,64.6,55.7,29.90,West,267,1.4,3.5,73,0.00,FEW,,0.00,WeatherDisplay:10.37,2013-05-11 04:26:00,
2013-05-11 00:31:00,64.6,55.7,29.90,SW,233,1.1,3.5,73,0.00,FEW,,0.00,WeatherDisplay:10.37,2013-05-11 04:31:00,
2013-05-11 00:36:00,64.4,55.9,29.90,SW,233,0.0,0.0,74,0.00,FEW,,0.00,WeatherDisplay:10.37,2013-05-11 04:36:00,
2013-05-11 00:41:00,64.2,55.7,29.90,West,277,0.0,1.2,74,0.00,FEW,,0.00,WeatherDisplay:10.37,2013-05-11 04:41:00,
2013-05-11 00:46:00,64.1,55.6,29.89,SSW,213,0.2,1.2,74,0.00,FEW,,0.00,WeatherDisplay:10.37,2013-05-11 04:46:00,
2013-05-11 00:51:00,64.0,55.5,29.89,WSW,254,0.0,1.2,74,0.00,FEW,,0.00,WeatherDisplay:10.37,2013-05-11 04:51:00,
2013-05-11 00:56:00,64.0,55.9,29.89,SW,231,0.0,0.0,75,0.00,FEW,,0.00,WeatherDisplay:10.37,2013-05-11 04:56:00,
2013-05-11 01:01:00,63.8,55.7,29.89,WSW,244,0.4,3.5,75,0.00,CLR,,0.00,WeatherDisplay:10.37,2013-05-11 05:01:00,
2013-05-11 01:06:00,63.6,55.9,29.89,South,180,0.0,1.2,76,0.00,CLR,,0.00,WeatherDisplay:10.37,2013-05-11 05:06:00,
2013-05-11 01:11:00,63.4,55.7,29.88,SW,217,0.3,1.2,76,0.00,CLR,,0.00,WeatherDisplay:10.37,2013-05-11 05:11:00,
2013-05-11 01:16:00,63.2,55.5,29.88,WSW,250,1.3,4.0,76,0.00,CLR,,0.00,WeatherDisplay:10.37,2013-05-11 05:16:00,
2013-05-11 01:21:00,63.1,55.8,29.88,South,190,0.1,1.2,77,0.00,CLR,,0.00,WeatherDisplay:10.37,2013-05-11 05:21:00,
2013-05-11 01:26:00,63.0,55.7,29.88,SSW,209,1.6,3.5,77,0.00,CLR,,0.00,WeatherDisplay:10.37,2013-05-11 05:26:00,
2013-05-11 01:31:00,63.0,55.7,29.88,SSW,192,0.4,3.5,77,0.00,CLR,,0.00,WeatherDisplay:10.37,2013-05-11 05:31:00,
2013-05-11 01:36:00,63.1,55.8,29.88,East,92,0.5,2.3,77,0.00,CLR,,0.00,WeatherDisplay:10.37,2013-05-11 05:36:00,
2013-05-11 01:41:00,63.2,55.9,29.88,ESE,112,0.4,1.2,77,0.00,CLR,,0.00,WeatherDisplay:10.37,2013-05-11 05:41:00,
2013-05-11 01:46:00,63.2,55.5,29.88,South,178,0.0,2.3,76,0.00,CLR,,0.00,WeatherDisplay:10.37,2013-05-11 05:46:00,
2013-05-11 01:51:00,63.2,55.5,29.87,SSE,151,0.0,0.0,76,0.00,CLR,,0.00,WeatherDisplay:10.37,2013-05-11 05:51:00,
2013-05-11 01:56:00,63.2,55.5,29.87,SW,218,0.1,3.0,76,0.00,CLR,,0.00,WeatherDisplay:10.37,2013-05-11 05:56:00,
2013-05-11 02:01:00,63.2,55.5,29.87,SSW,206,1.0,2.3,76,0.00,CLR,,0.00,WeatherDisplay:10.37,2013-05-11 06:01:00,
2013-05-11 02:06:00,63.2,55.5,29.87,SSW,204,0.4,1.2,76,0.00,CLR,,0.00,WeatherDisplay:10.37,2013-05-11 06:06:00,
2013-05-11 02:11:00,63.1,55.4,29.87,SSW,209,0.5,2.3,76,0.00,CLR,,0.00,WeatherDisplay:10.37,2013-05-11 06:11:00,
2013-05-11 02:16:00,63.1,55.4,29.87,SW,219,0.0,2.3,76,0.00,CLR,,0.00,WeatherDisplay:10.37,2013-05-11 06:16:00,
2013-05-11 02:21:00,63.0,55.3,29.86,SW,216,0.3,1.2,76,0.00,CLR,,0.00,WeatherDisplay:10.37,2013-05-11 06:21:00,
2013-05-11 02:26:00,62.9,55.2,29.86,South,188,1.1,3.5,76,0.00,CLR,,0.00,WeatherDisplay:10.37,2013-05-11 06:26:00,
2013-05-11 02:31:00,62.8,55.1,29.86,South,169,1.3,3.5,76,0.00,CLR,,0.00,WeatherDisplay:10.37,2013-05-11 06:31:00,
2013-05-11 02:36:00,62.7,55.0,29.86,SE,135,0.2,1.2,76,0.00,CLR,,0.00,WeatherDisplay:10.37,2013-05-11 06:36:00,
2013-05-11 02:41:00,62.6,54.9,29.85,SE,135,0.0,1.2,76,0.00,CLR,,0.00,WeatherDisplay:10.37,2013-05-11 06:41:00,
2013-05-11 02:46:00,62.5,55.2,29.85,SSE,155,0.2,1.2,77,0.00,CLR,,0.00,WeatherDisplay:10.37,2013-05-11 06:46:00,
2013-05-11 02:51:00,62.4,55.1,29.85,SSE,154,0.0,0.0,77,0.00,CLR,,0.00,WeatherDisplay:10.37,2013-05-11 06:51:00,
2013-05-11 02:56:00,62.3,55.0,29.85,SSE,154,0.0,0.0,77,0.00,CLR,,0.00,WeatherDisplay:10.37,2013-05-11 06:56:00,
2013-05-11 03:01:00,62.2,54.9,29.85,SSE,154,0.0,1.2,77,0.00,SCT,,0.00,WeatherDisplay:10.37,2013-05-11 07:01:00,
2013-05-11 03:06:00,62.1,54.8,29.85,SW,219,1.5,3.5,77,0.00,SCT,,0.00,WeatherDisplay:10.37,2013-05-11 07:06:00,
2013-05-11 03:11:00,62.0,55.1,29.84,South,182,0.9,2.3,78,0.00,SCT,,0.00,WeatherDisplay:10.37,2013-05-11 07:11:00,
2013-05-11 03:16:00,61.8,54.9,29.84,South,184,0.6,2.3,78,0.00,SCT,,0.00,WeatherDisplay:10.37,2013-05-11 07:16:00,
2013-05-11 03:21:00,61.7,55.1,29.84,SSW,194,0.6,2.3,79,0.00,SCT,,0.00,WeatherDisplay:10.37,2013-05-11 07:21:00,
2013-05-11 03:26:00,61.6,55.0,29.84,SSW,206,0.8,2.3,79,0.00,SCT,,0.00,WeatherDisplay:10.37,2013-05-11 07:26:00,
2013-05-11 03:31:00,61.4,54.8,29.84,South,188,0.2,2.3,79,0.00,SCT,,0.00,WeatherDisplay:10.37,2013-05-11 07:31:00,
2013-05-11 03:36:00,61.3,54.7,29.84,SSW,199,0.1,1.0,79,0.00,SCT,,0.00,WeatherDisplay:10.37,2013-05-11 07:36:00,
2013-05-11 03:41:00,61.1,54.9,29.84,SSW,198,0.6,3.5,80,0.00,SCT,,0.00,WeatherDisplay:10.37,2013-05-11 07:41:00,
2013-05-11 03:46:00,61.0,54.8,29.83,SSW,202,0.2,1.2,80,0.00,SCT,,0.00,WeatherDisplay:10.37,2013-05-11 07:46:00,
2013-05-11 03:51:00,60.8,54.6,29.83,SSE,167,0.3,2.0,80,0.00,SCT,,0.00,WeatherDisplay:10.37,2013-05-11 07:51:00,
2013-05-11 03:56:00,60.8,54.9,29.82,SSE,150,2.0,3.5,81,0.00,SCT,,0.00,WeatherDisplay:10.37,2013-05-11 07:56:00,
2013-05-11 04:01:00,60.7,54.8,29.83,SSE,167,0.0,0.0,81,0.00,SCT,,0.00,WeatherDisplay:10.37,2013-05-11 08:01:00,
2013-05-11 04:06:00,60.6,54.7,29.82,South,190,0.3,2.3,81,0.00,SCT,,0.00,WeatherDisplay:10.37,2013-05-11 08:06:00,
2013-05-11 04:11:00,60.5,54.6,29.82,South,189,0.0,0.0,81,0.00,SCT,,0.00,WeatherDisplay:10.37,2013-05-11 08:11:00,
2013-05-11 04:16:00,60.4,54.9,29.82,SSW,197,0.4,2.3,82,0.00,CLR,,0.00,WeatherDisplay:10.37,2013-05-11 08:16:00,
2013-05-11 04:21:00,60.2,54.7,29.82,SSW,198,0.1,2.3,82,0.00,CLR,,0.00,WeatherDisplay:10.37,2013-05-11 08:21:00,
2013-05-11 04:26:00,60.1,54.6,29.81,SSW,211,0.8,2.3,82,0.00,CLR,,0.00,WeatherDisplay:10.37,2013-05-11 08:26:00,
2013-05-11 04:31:00,60.0,54.8,29.81,SSW,211,0.0,1.2,83,0.00,CLR,,0.00,WeatherDisplay:10.37,2013-05-11 08:31:00,
2013-05-11 04:36:00,59.9,54.7,29.81,SSW,196,0.0,1.2,83,0.00,CLR,,0.00,WeatherDisplay:10.37,2013-05-11 08:36:00,
2013-05-11 04:41:00,59.8,54.6,29.81,South,169,0.1,1.2,83,0.00,CLR,,0.00,WeatherDisplay:10.37,2013-05-11 08:41:00,
2013-05-11 04:46:00,59.8,55.0,29.81,South,181,1.4,3.5,84,0.00,CLR,,0.00,WeatherDisplay:10.37,2013-05-11 08:46:00,
2013-05-11 04:51:00,59.8,55.0,29.81,SW,216,0.8,2.3,84,0.00,CLR,,0.00,WeatherDisplay:10.37,2013-05-11 08:51:00,
2013-05-11 04:56:00,59.8,55.0,29.81,SSE,161,0.1,1.2,84,0.00,CLR,,0.00,WeatherDisplay:10.37,2013-05-11 08:56:00,
2013-05-11 05:01:00,59.7,54.9,29.82,South,182,0.4,2.0,84,0.00,CLR,,0.00,WeatherDisplay:10.37,2013-05-11 09:01:00,
2013-05-11 05:06:00,59.7,55.2,29.82,SSW,207,0.4,1.0,85,0.00,CLR,,0.00,WeatherDisplay:10.37,2013-05-11 09:06:00,
2013-05-11 05:11:00,59.7,55.2,29.82,SSW,211,1.3,3.5,85,0.00,CLR,,0.00,WeatherDisplay:10.37,2013-05-11 09:11:00,
2013-05-11 05:16:00,59.7,55.2,29.82,West,269,2.8,4.6,85,0.00,CLR,,0.00,WeatherDisplay:10.37,2013-05-11 09:16:00,
2013-05-11 05:21:00,59.8,55.3,29.82,SE,142,0.2,1.2,85,0.00,CLR,,0.00,WeatherDisplay:10.37,2013-05-11 09:21:00,
2013-05-11 05:26:00,59.8,55.3,29.81,ESE,118,0.0,1.2,85,0.00,CLR,,0.00,WeatherDisplay:10.37,2013-05-11 09:26:00,
2013-05-11 05:31:00,59.8,55.3,29.80,SE,146,0.3,2.3,85,0.00,CLR,,0.00,WeatherDisplay:10.37,2013-05-11 09:31:00,
2013-05-11 05:36:00,59.8,55.3,29.81,South,172,0.6,3.5,85,0.00,CLR,,0.00,WeatherDisplay:10.37,2013-05-11 09:36:00,
2013-05-11 05:41:00,59.8,55.9,29.82,SSE,160,0.5,2.3,87,0.00,CLR,,0.01,WeatherDisplay:10.37,2013-05-11 09:41:00,
2013-05-11 05:46:00,59.5,56.3,29.81,SSE,165,0.8,2.3,89,0.02,RA,,0.03,WeatherDisplay:10.37,2013-05-11 09:46:00,
2013-05-11 05:52:00,59.1,56.2,29.81,South,174,1.7,3.5,90,0.04,RA,,0.04,WeatherDisplay:10.37,2013-05-11 09:52:00,
2013-05-11 05:57:00,58.9,56.3,29.80,SE,143,0.1,1.2,91,0.04,RA,,0.04,WeatherDisplay:10.37,2013-05-11 09:57:00,
2013-05-11 06:02:00,58.7,56.1,29.80,SSW,199,0.5,3.5,91,0.04,-RA,,0.04,WeatherDisplay:10.37,2013-05-11 10:02:00,
2013-05-11 06:07:00,58.5,56.2,29.80,SSE,148,0.7,3.5,92,0.04,-RA,,0.04,WeatherDisplay:10.37,2013-05-11 10:07:00,
2013-05-11 06:12:00,58.4,56.1,29.79,SSE,167,2.3,3.5,92,0.04,-RA,,0.04,WeatherDisplay:10.37,2013-05-11 10:12:00,
2013-05-11 06:17:00,58.4,56.4,29.80,South,171,0.7,3.5,93,0.04,-RA,,0.04,WeatherDisplay:10.37,2013-05-11 10:17:00,
2013-05-11 06:22:00,58.4,56.4,29.80,SSE,150,0.5,2.0,93,0.04,-RA,,0.04,WeatherDisplay:10.37,2013-05-11 10:22:00,
2013-05-11 06:27:00,58.3,56.3,29.80,SSE,161,0.0,1.2,93,0.04,-RA,,0.04,WeatherDisplay:10.37,2013-05-11 10:27:00,
2013-05-11 06:32:00,58.4,56.7,29.79,ENE,71,1.6,4.6,94,0.04,-RA,,0.04,WeatherDisplay:10.37,2013-05-11 10:32:00,
2013-05-11 06:37:00,58.3,56.6,29.80,SSW,198,1.2,3.5,94,0.04,-RA,,0.04,WeatherDisplay:10.37,2013-05-11 10:37:00,
2013-05-11 06:42:00,58.3,56.6,29.81,SE,145,0.9,3.5,94,0.04,-RA,,0.04,WeatherDisplay:10.37,2013-05-11 10:42:00,
2013-05-11 06:47:00,58.3,56.6,29.81,SSW,202,1.9,3.5,94,0.02,-RA,,0.04,WeatherDisplay:10.37,2013-05-11 10:47:00,
2013-05-11 06:52:00,58.3,56.6,29.81,WSW,252,2.1,4.6,94,0.00,-RA,,0.04,WeatherDisplay:10.37,2013-05-11 10:52:00,
2013-05-11 06:57:00,58.3,56.9,29.82,NNE,33,1.3,3.5,95,0.00,-RA,,0.04,WeatherDisplay:10.37,2013-05-11 10:57:00,
2013-05-11 07:02:00,58.2,56.5,29.82,SSW,202,1.8,8.1,94,0.00,OVC,,0.04,WeatherDisplay:10.37,2013-05-11 11:02:00,
2013-05-11 07:07:00,58.2,56.8,29.82,SW,217,2.0,4.6,95,0.00,OVC,,0.04,WeatherDisplay:10.37,2013-05-11 11:07:00,
2013-05-11 07:12:00,58.3,56.9,29.81,WSW,243,0.9,3.5,95,0.00,OVC,,0.04,WeatherDisplay:10.37,2013-05-11 11:12:00,
2013-05-11 07:17:00,58.3,56.9,29.81,SSW,199,2.1,4.0,95,0.00,OVC,,0.04,WeatherDisplay:10.37,2013-05-11 11:17:00,
2013-05-11 07:22:00,58.3,56.9,29.81,SSW,211,3.6,6.9,95,0.00,OVC,,0.04,WeatherDisplay:10.37,2013-05-11 11:22:00,
2013-05-11 07:27:00,58.3,56.9,29.81,SW,214,1.6,2.3,95,0.00,OVC,,0.04,WeatherDisplay:10.37,2013-05-11 11:27:00,
2013-05-11 07:32:00,58.3,56.9,29.81,SW,215,2.8,6.9,95,0.00,OVC,,0.04,WeatherDisplay:10.37,2013-05-11 11:32:00,
2013-05-11 07:37:00,58.4,57.0,29.81,SW,217,2.0,3.5,95,0.00,OVC,,0.04,WeatherDisplay:10.37,2013-05-11 11:37:00,
2013-05-11 07:42:00,58.4,57.0,29.81,NNE,17,0.8,3.5,95,0.00,OVC,,0.04,WeatherDisplay:10.37,2013-05-11 11:42:00,
2013-05-11 07:47:00,58.5,57.1,29.80,SSW,200,0.8,2.3,95,0.00,OVC,,0.04,WeatherDisplay:10.37,2013-05-11 11:47:00,
2013-05-11 07:52:00,58.6,57.2,29.80,South,182,0.0,3.5,95,0.00,OVC,,0.04,WeatherDisplay:10.37,2013-05-11 11:52:00,
2013-05-11 07:57:00,58.7,57.3,29.80,WSW,254,1.2,4.0,95,0.00,OVC,,0.04,WeatherDisplay:10.37,2013-05-11 11:57:00,
2013-05-11 08:02:00,58.9,57.5,29.80,SSW,211,1.9,3.5,95,0.00,OVC,,0.04,WeatherDisplay:10.37,2013-05-11 12:02:00,
2013-05-11 08:07:00,59.0,57.6,29.80,SE,142,0.6,3.0,95,0.00,OVC,,0.04,WeatherDisplay:10.37,2013-05-11 12:07:00,
2013-05-11 08:12:00,59.3,58.2,29.80,SW,231,0.5,2.3,96,0.00,OVC,,0.04,WeatherDisplay:10.37,2013-05-11 12:12:00,
2013-05-11 08:17:00,59.5,58.1,29.80,WSW,238,3.1,5.0,95,0.00,-RA,,0.04,WeatherDisplay:10.37,2013-05-11 12:17:00,
2013-05-11 08:22:00,59.6,58.2,29.80,SSW,202,2.0,4.6,95,0.00,-RA,,0.04,WeatherDisplay:10.37,2013-05-11 12:22:00,
2013-05-11 08:27:00,59.7,58.3,29.79,SE,144,1.1,2.3,95,0.00,-RA,,0.04,WeatherDisplay:10.37,2013-05-11 12:27:00,
2013-05-11 08:32:00,59.8,58.4,29.80,West,259,0.4,2.0,95,0.00,-RA,,0.04,WeatherDisplay:10.37,2013-05-11 12:32:00,
2013-05-11 08:37:00,59.9,58.5,29.79,SSW,199,0.5,3.5,95,0.00,-RA,,0.04,WeatherDisplay:10.37,2013-05-11 12:37:00,
2013-05-11 08:42:00,60.0,58.3,29.79,SW,220,3.7,4.6,94,0.00,-RA,,0.04,WeatherDisplay:10.37,2013-05-11 12:42:00,
2013-05-11 08:47:00,60.1,58.4,29.79,SSW,197,2.8,3.5,94,0.00,-RA,,0.04,WeatherDisplay:10.37,2013-05-11 12:47:00,
2013-05-11 08:52:00,60.3,58.9,29.79,SSW,205,1.2,3.5,95,0.00,-RA,,0.04,WeatherDisplay:10.37,2013-05-11 12:52:00,
2013-05-11 08:57:00,60.6,58.9,29.79,SW,217,2.2,4.6,94,0.00,-RA,,0.04,WeatherDisplay:10.37,2013-05-11 12:57:00,
2013-05-11 09:02:00,60.9,59.2,29.79,South,185,0.4,2.3,94,0.00,OVC,,0.04,WeatherDisplay:10.37,2013-05-11 13:02:00,
2013-05-11 09:07:00,61.1,59.4,29.79,SSE,157,2.1,3.0,94,0.00,OVC,,0.04,WeatherDisplay:10.37,2013-05-11 13:07:00,
2013-05-11 09:12:00,61.3,59.6,29.78,WSW,256,0.4,2.0,94,0.00,OVC,,0.04,WeatherDisplay:10.37,2013-05-11 13:12:00,
2013-05-11 09:17:00,61.6,59.6,29.78,WSW,257,1.5,3.5,93,0.00,OVC,,0.04,WeatherDisplay:10.37,2013-05-11 13:17:00,
2013-05-11 09:22:00,62.2,60.5,29.78,WSW,244,2.1,3.5,94,0.00,OVC,,0.04,WeatherDisplay:10.37,2013-05-11 13:22:00,
2013-05-11 09:27:00,62.8,60.4,29.78,SW,231,2.4,3.5,92,0.00,OVC,,0.04,WeatherDisplay:10.37,2013-05-11 13:27:00,
2013-05-11 09:32:00,63.1,60.4,29.78,SSW,201,4.0,4.6,91,0.00,OVC,,0.04,WeatherDisplay:10.37,2013-05-11 13:32:00,
2013-05-11 09:37:00,63.4,60.7,29.78,SSW,198,2.0,3.5,91,0.00,OVC,,0.04,WeatherDisplay:10.37,2013-05-11 13:37:00,
2013-05-11 09:42:00,63.5,60.2,29.78,SSW,193,2.7,11.5,89,0.00,OVC,,0.04,WeatherDisplay:10.37,2013-05-11 13:42:00,
2013-05-11 09:47:00,63.8,60.5,29.78,SSW,211,4.9,8.1,89,0.00,OVC,,0.04,WeatherDisplay:10.37,2013-05-11 13:47:00,
2013-05-11 09:52:00,64.0,60.4,29.78,SW,224,4.0,9.2,88,0.00,OVC,,0.04,WeatherDisplay:10.37,2013-05-11 13:52:00,
2013-05-11 09:57:00,64.3,61.0,29.78,SW,217,1.0,3.5,89,0.00,OVC,,0.04,WeatherDisplay:10.37,2013-05-11 13:57:00,
2013-05-11 10:02:00,64.6,60.6,29.78,ESE,113,2.8,8.1,87,0.00,BKN,,0.04,WeatherDisplay:10.37,2013-05-11 14:02:00,
2013-05-11 10:07:00,64.9,60.6,29.78,NW,317,2.7,9.2,86,0.00,BKN,,0.04,WeatherDisplay:10.37,2013-05-11 14:07:00,
2013-05-11 10:12:00,65.1,60.5,29.78,North,355,3.1,9.2,85,0.00,BKN,,0.04,WeatherDisplay:10.37,2013-05-11 14:12:00,
2013-05-11 10:17:00,65.2,60.6,29.78,West,268,4.1,8.1,85,0.00,SCT,,0.04,WeatherDisplay:10.37,2013-05-11 14:17:00,
2013-05-11 10:22:00,65.4,60.4,29.78,SSE,162,2.7,5.8,84,0.00,SCT,,0.04,WeatherDisplay:10.37,2013-05-11 14:22:00,
2013-05-11 10:27:00,65.7,60.7,29.78,NNW,340,1.7,3.5,84,0.00,SCT,,0.04,WeatherDisplay:10.37,2013-05-11 14:27:00,
2013-05-11 10:32:00,66.0,61.0,29.78,SSW,196,1.0,4.0,84,0.00,SCT,,0.04,WeatherDisplay:10.37,2013-05-11 14:32:00,
2013-05-11 10:37:00,65.9,60.6,29.78,SE,129,3.6,4.6,83,0.00,SCT,,0.04,WeatherDisplay:10.37,2013-05-11 14:37:00,
2013-05-11 10:42:00,65.7,60.1,29.78,WSW,238,2.2,10.0,82,0.00,SCT,,0.04,WeatherDisplay:10.37,2013-05-11 14:42:00,
2013-05-11 10:47:00,65.7,60.1,29.78,SSE,162,5.1,6.0,82,0.00,BKN,,0.04,WeatherDisplay:10.37,2013-05-11 14:47:00,
2013-05-11 10:52:00,65.7,60.4,29.78,South,190,0.1,3.5,83,0.00,BKN,,0.04,WeatherDisplay:10.37,2013-05-11 14:52:00,
2013-05-11 10:57:00,65.7,60.1,29.78,SSW,196,5.1,12.7,82,0.00,BKN,,0.04,WeatherDisplay:10.37,2013-05-11 14:57:00,
2013-05-11 11:02:00,65.6,60.0,29.78,West,269,4.0,9.2,82,0.00,OVC,,0.04,WeatherDisplay:10.37,2013-05-11 15:02:00,
2013-05-11 11:07:00,65.6,60.0,29.78,WSW,255,4.5,5.0,82,0.00,OVC,,0.04,WeatherDisplay:10.37,2013-05-11 15:07:00,
2013-05-11 11:12:00,65.7,60.4,29.78,West,263,1.6,4.6,83,0.00,OVC,,0.04,WeatherDisplay:10.37,2013-05-11 15:12:00,
2013-05-11 11:17:00,65.9,60.6,29.78,NE,35,5.1,5.8,83,0.00,OVC,,0.04,WeatherDisplay:10.37,2013-05-11 15:17:00,
2013-05-11 11:22:00,66.3,60.6,29.77,SW,222,3.0,5.0,82,0.00,OVC,,0.04,WeatherDisplay:10.37,2013-05-11 15:22:00,
2013-05-11 11:27:00,66.6,61.3,29.78,SSE,158,2.2,2.3,83,0.00,OVC,,0.04,WeatherDisplay:10.37,2013-05-11 15:27:00,
2013-05-11 11:32:00,67.0,61.0,29.78,West,276,3.4,9.2,81,0.00,RA,,0.04,WeatherDisplay:10.37,2013-05-11 15:32:00,
2013-05-11 11:37:00,67.4,61.4,29.77,WNW,294,2.1,6.9,81,0.00,RA,,0.04,WeatherDisplay:10.37,2013-05-11 15:37:00,
2013-05-11 11:42:00,67.8,61.4,29.77,South,171,3.7,9.2,80,0.00,OVC,,0.04,WeatherDisplay:10.37,2013-05-11 15:42:00,
2013-05-11 11:47:00,68.2,61.4,29.77,WNW,297,1.5,3.0,79,0.00,OVC,,0.04,WeatherDisplay:10.37,2013-05-11 15:47:00,
2013-05-11 11:52:00,68.5,61.4,29.77,WSW,251,2.7,8.1,78,0.00,OVC,,0.04,WeatherDisplay:10.37,2013-05-11 15:52:00,
2013-05-11 11:57:00,68.9,61.8,29.77,WNW,300,3.7,10.4,78,0.00,OVC,,0.04,WeatherDisplay:10.37,2013-05-11 15:57:00,
2013-05-11 12:02:00,69.4,61.5,29.76,NE,43,6.0,16.1,76,0.00,BKN,,0.04,WeatherDisplay:10.37,2013-05-11 16:02:00,
2013-05-11 12:07:00,69.3,61.0,29.76,North,355,5.1,11.5,75,0.01,RA,,0.05,WeatherDisplay:10.37,2013-05-11 16:07:00,
2013-05-11 12:12:00,69.0,61.1,29.76,SE,133,1.3,4.6,76,0.01,RA,,0.05,WeatherDisplay:10.37,2013-05-11 16:12:00,
2013-05-11 12:17:00,68.8,61.3,29.76,SSW,205,5.2,9.2,77,0.01,OVC,,0.05,WeatherDisplay:10.37,2013-05-11 16:17:00,
2013-05-11 12:22:00,68.7,60.8,29.76,SW,224,3.6,8.1,76,0.01,OVC,,0.05,WeatherDisplay:10.37,2013-05-11 16:22:00,
2013-05-11 12:27:00,68.7,61.6,29.75,ESE,121,1.6,3.5,78,0.01,OVC,,0.05,WeatherDisplay:10.37,2013-05-11 16:27:00,
2013-05-11 12:32:00,68.8,62.0,29.75,NE,42,2.0,3.5,79,0.01,OVC,,0.05,WeatherDisplay:10.37,2013-05-11 16:32:00,
2013-05-11 12:37:00,68.9,61.8,29.75,SSW,207,3.2,11.5,78,0.01,OVC,,0.05,WeatherDisplay:10.37,2013-05-11 16:37:00,
2013-05-11 12:42:00,69.0,62.2,29.75,NW,320,1.9,11.0,79,0.01,OVC,,0.05,WeatherDisplay:10.37,2013-05-11 16:42:00,
2013-05-11 12:47:00,69.1,61.9,29.75,NW,308,3.1,6.9,78,0.01,OVC,,0.05,WeatherDisplay:10.37,2013-05-11 16:47:00,
2013-05-11 12:52:00,69.3,62.1,29.75,SSW,192,5.2,10.4,78,0.01,OVC,,0.05,WeatherDisplay:10.37,2013-05-11 16:52:00,
2013-05-11 12:57:00,69.5,62.3,29.75,SSW,202,1.0,4.6,78,0.01,OVC,,0.05,WeatherDisplay:10.37,2013-05-11 16:57:00,
2013-05-11 13:02:00,69.7,61.8,29.75,SSW,198,5.9,11.5,76,0.01,OVC,,0.05,WeatherDisplay:10.37,2013-05-11 17:02:00,
2013-05-11 13:07:00,69.8,61.9,29.75,WSW,238,2.1,6.9,76,0.00,OVC,,0.05,WeatherDisplay:10.37,2013-05-11 17:07:00,
2013-05-11 13:12:00,70.0,62.5,29.75,WSW,251,1.3,3.5,77,0.00,OVC,,0.05,WeatherDisplay:10.37,2013-05-11 17:12:00,
2013-05-11 13:17:00,70.2,61.9,29.74,SSW,201,4.3,8.1,75,0.00,OVC,,0.05,WeatherDisplay:10.37,2013-05-11 17:17:00,
2013-05-11 13:22:00,70.2,61.9,29.74,SW,235,5.6,6.9,75,0.00,OVC,,0.05,WeatherDisplay:10.37,2013-05-11 17:22:00,
2013-05-11 13:27:00,70.3,62.0,29.74,West,269,3.8,9.2,75,0.00,OVC,,0.05,WeatherDisplay:10.37,2013-05-11 17:27:00,
2013-05-11 13:32:00,70.3,61.6,29.74,SW,226,3.9,5.8,74,0.00,OVC,,0.05,WeatherDisplay:10.37,2013-05-11 17:32:00,
2013-05-11 13:37:00,70.2,61.9,29.75,SSE,155,4.0,6.0,75,0.00,OVC,,0.05,WeatherDisplay:10.37,2013-05-11 17:37:00,
2013-05-11 13:42:00,69.9,62.0,29.74,WSW,257,1.2,6.9,76,0.00,OVC,,0.05,WeatherDisplay:10.37,2013-05-11 17:42:00,
2013-05-11 13:47:00,69.6,62.1,29.74,East,97,2.2,4.6,77,0.00,OVC,,0.05,WeatherDisplay:10.37,2013-05-11 17:47:00,
2013-05-11 13:52:00,69.4,61.9,29.74,SSW,210,4.7,9.2,77,0.00,OVC,,0.05,WeatherDisplay:10.37,2013-05-11 17:52:00,
2013-05-11 13:57:00,69.2,61.7,29.74,WSW,240,3.8,11.0,77,0.00,OVC,,0.05,WeatherDisplay:10.37,2013-05-11 17:57:00,
2013-05-11 14:02:00,69.0,61.9,29.74,SW,224,2.6,5.8,78,0.00,OVC,,0.05,WeatherDisplay:10.37,2013-05-11 18:02:00,
2013-05-11 14:07:00,68.9,61.4,29.74,South,189,5.5,11.5,77,0.00,OVC,,0.05,WeatherDisplay:10.37,2013-05-11 18:07:00,
2013-05-11 14:12:00,68.8,62.0,29.74,East,93,2.3,6.0,79,0.00,OVC,,0.05,WeatherDisplay:10.37,2013-05-11 18:12:00,
2013-05-11 14:17:00,68.6,61.5,29.74,SSE,161,2.4,11.5,78,0.00,-RA,,0.05,WeatherDisplay:10.37,2013-05-11 18:17:00,
2013-05-11 14:22:00,68.5,61.4,29.73,SW,224,3.2,8.1,78,0.00,-RA,,0.05,WeatherDisplay:10.37,2013-05-11 18:22:00,
2013-05-11 14:27:00,68.3,61.2,29.74,South,191,3.8,10.4,78,0.00,-RA,,0.05,WeatherDisplay:10.37,2013-05-11 18:27:00,
2013-05-11 14:32:00,68.3,61.2,29.73,WSW,250,3.6,9.0,78,0.00,-RA,,0.05,WeatherDisplay:10.37,2013-05-11 18:32:00,
2013-05-11 14:37:00,68.2,61.1,29.73,ENE,63,5.2,12.7,78,0.00,-RA,,0.05,WeatherDisplay:10.37,2013-05-11 18:37:00,
2013-05-11 14:42:00,68.1,61.0,29.73,WSW,252,2.4,3.5,78,0.00,-RA,,0.05,WeatherDisplay:10.37,2013-05-11 18:42:00,
2013-05-11 14:47:00,68.0,60.9,29.73,WNW,282,3.3,8.1,78,0.00,-RA,,0.05,WeatherDisplay:10.37,2013-05-11 18:47:00,
2013-05-11 14:52:00,67.9,60.8,29.73,South,175,4.2,11.5,78,0.00,OVC,,0.05,WeatherDisplay:10.37,2013-05-11 18:52:00,
2013-05-11 14:57:00,67.7,61.0,29.73,SW,232,4.3,11.5,79,0.00,OVC,,0.05,WeatherDisplay:10.37,2013-05-11 18:57:00,
2013-05-11 15:02:00,67.6,60.9,29.72,South,181,4.5,6.9,79,0.00,OVC,,0.05,WeatherDisplay:10.37,2013-05-11 19:02:00,
2013-05-11 15:07:00,67.5,60.4,29.72,SW,224,6.5,15.0,78,0.00,OVC,,0.05,WeatherDisplay:10.37,2013-05-11 19:07:00,
2013-05-11 15:12:00,67.5,60.4,29.73,South,184,5.1,15.0,78,0.00,OVC,,0.05,WeatherDisplay:10.37,2013-05-11 19:12:00,
2013-05-11 15:17:00,67.3,60.2,29.72,NE,40,1.5,8.1,78,0.00,OVC,,0.05,WeatherDisplay:10.37,2013-05-11 19:17:00,
2013-05-11 15:22:00,67.2,60.5,29.73,South,182,1.3,3.5,79,0.00,OVC,,0.05,WeatherDisplay:10.37,2013-05-11 19:22:00,
2013-05-11 15:27:00,67.2,60.5,29.72,NW,325,2.7,6.9,79,0.00,OVC,,0.05,WeatherDisplay:10.37,2013-05-11 19:27:00,
2013-05-11 15:32:00,67.0,60.3,29.72,WSW,242,1.7,5.8,79,0.00,OVC,,0.05,WeatherDisplay:10.37,2013-05-11 19:32:00,
2013-05-11 15:37:00,66.8,59.7,29.73,SW,216,6.2,11.5,78,0.00,OVC,,0.05,WeatherDisplay:10.37,2013-05-11 19:37:00,
2013-05-11 15:42:00,66.7,60.0,29.72,WSW,252,0.0,13.0,79,0.00,OVC,,0.05,WeatherDisplay:10.37,2013-05-11 19:42:00,
2013-05-11 15:47:00,66.5,59.8,29.72,SSW,201,4.7,8.1,79,0.00,RA,,0.05,WeatherDisplay:10.37,2013-05-11 19:47:00,
2013-05-11 16:52:00,66.1,60.4,29.71,WSW,243,4.9,9.0,82,0.00,OVC,,0.05,WeatherDisplay:10.37,2013-05-11 20:52:00,
2013-05-11 16:57:00,66.1,60.4,29.71,West,277,2.3,5.0,82,0.00,OVC,,0.05,WeatherDisplay:10.37,2013-05-11 20:57:00,
2013-05-11 17:02:00,66.1,60.8,29.71,South,172,0.3,3.5,83,0.00,-RA,,0.05,WeatherDisplay:10.37,2013-05-11 21:02:00,
2013-05-11 17:07:00,66.1,60.4,29.71,WNW,291,3.1,3.5,82,0.00,-RA,,0.05,WeatherDisplay:10.37,2013-05-11 21:07:00,
2013-05-11 17:12:00,66.1,60.4,29.71,SW,230,2.9,4.6,82,0.00,-RA,,0.05,WeatherDisplay:10.37,2013-05-11 21:12:00,
2013-05-11 17:17:00,66.1,60.4,29.72,West,271,3.3,9.2,82,0.00,-RA,,0.05,WeatherDisplay:10.37,2013-05-11 21:17:00,
2013-05-11 17:22:00,66.1,60.8,29.72,SW,235,1.9,4.6,83,0.00,-RA,,0.05,WeatherDisplay:10.37,2013-05-11 21:22:00,
2013-05-11 17:27:00,66.0,61.0,29.72,NE,52,1.2,3.5,84,0.00,-RA,,0.05,WeatherDisplay:10.37,2013-05-11 21:27:00,
2013-05-11 17:32:00,65.9,60.6,29.72,SSW,204,5.8,10.4,83,0.00,-RA,,0.05,WeatherDisplay:10.37,2013-05-11 21:32:00,
2013-05-11 17:37:00,65.8,60.5,29.71,SW,217,1.3,10.4,83,0.00,-RA,,0.05,WeatherDisplay:10.37,2013-05-11 21:37:00,
2013-05-11 17:42:00,65.8,60.8,29.71,WSW,254,4.3,5.8,84,0.00,-RA,,0.05,WeatherDisplay:10.37,2013-05-11 21:42:00,
2013-05-11 17:47:00,65.8,60.8,29.72,SW,219,0.1,3.5,84,0.00,-RA,,0.05,WeatherDisplay:10.37,2013-05-11 21:47:00,
2013-05-11 17:52:00,65.8,60.8,29.72,WSW,257,2.5,6.9,84,0.00,-RA,,0.05,WeatherDisplay:10.37,2013-05-11 21:52:00,
2013-05-11 17:57:00,65.8,60.5,29.72,South,190,5.4,8.1,83,0.00,-RA,,0.05,WeatherDisplay:10.37,2013-05-11 21:57:00,
2013-05-11 18:02:00,65.8,60.8,29.72,West,277,2.0,3.5,84,0.00,OVC,,0.05,WeatherDisplay:10.37,2013-05-11 22:02:00,
2013-05-11 18:07:00,65.8,60.8,29.72,South,169,0.8,4.6,84,0.00,OVC,,0.05,WeatherDisplay:10.37,2013-05-11 22:07:00,
2013-05-11 18:12:00,65.8,60.8,29.73,ESE,103,1.8,4.6,84,0.00,OVC,,0.05,WeatherDisplay:10.37,2013-05-11 22:12:00,
2013-05-11 18:17:00,65.7,60.7,29.73,South,188,2.5,4.6,84,0.00,OVC,,0.05,WeatherDisplay:10.37,2013-05-11 22:17:00,
2013-05-11 18:22:00,65.6,61.0,29.73,West,271,1.9,3.5,85,0.00,OVC,,0.05,WeatherDisplay:10.37,2013-05-11 22:22:00,
2013-05-11 18:27:00,65.5,61.2,29.73,SW,232,2.6,7.0,86,0.00,OVC,,0.05,WeatherDisplay:10.37,2013-05-11 22:27:00,
2013-05-11 18:32:00,65.2,61.6,29.73,SSW,213,0.0,2.3,88,0.01,RA,,0.06,WeatherDisplay:10.37,2013-05-11 22:32:00,
2013-05-11 18:37:00,64.9,61.6,29.72,SW,219,1.7,4.0,89,0.02,RA,,0.07,WeatherDisplay:10.37,2013-05-11 22:37:00,
2013-05-11 18:42:00,64.5,61.5,29.72,WNW,302,3.4,6.0,90,0.02,RA,,0.08,WeatherDisplay:10.37,2013-05-11 22:42:00,
2013-05-11 18:47:00,64.2,61.5,29.72,SW,225,1.4,4.0,91,0.03,RA,,0.08,WeatherDisplay:10.37,2013-05-11 22:47:00,
2013-05-11 18:52:00,64.0,61.6,29.73,ESE,120,0.2,1.2,92,0.03,RA,,0.08,WeatherDisplay:10.37,2013-05-11 22:52:00,
2013-05-11 18:57:00,63.9,61.5,29.73,West,267,1.8,3.0,92,0.03,OVC,,0.08,WeatherDisplay:10.37,2013-05-11 22:57:00,
2013-05-11 19:02:00,63.7,61.6,29.73,WSW,237,1.3,3.5,93,0.03,-RA,,0.08,WeatherDisplay:10.37,2013-05-11 23:02:00,
2013-05-11 19:07:00,63.7,61.6,29.73,SSE,167,0.8,3.5,93,0.03,-RA,,0.08,WeatherDisplay:10.37,2013-05-11 23:07:00,
2013-05-11 19:12:00,63.6,61.5,29.73,South,183,0.0,0.0,93,0.03,-RA,,0.08,WeatherDisplay:10.37,2013-05-11 23:12:00,
2013-05-11 19:17:00,63.6,61.5,29.73,SSE,159,0.2,1.2,93,0.03,-RA,,0.08,WeatherDisplay:10.37,2013-05-11 23:17:00,
2013-05-11 19:22:00,63.6,61.5,29.73,WSW,240,0.0,1.2,93,0.03,-RA,,0.08,WeatherDisplay:10.37,2013-05-11 23:22:00,
2013-05-11 19:27:00,63.6,61.8,29.73,WSW,240,1.5,3.5,94,0.04,-RA,,0.09,WeatherDisplay:10.37,2013-05-11 23:27:00,
2013-05-11 19:32:00,63.5,61.7,29.73,East,99,0.8,2.3,94,0.03,-RA,,0.09,WeatherDisplay:10.37,2013-05-11 23:32:00,
2013-05-11 19:37:00,63.4,61.6,29.73,South,190,0.7,4.0,94,0.02,-RA,,0.09,WeatherDisplay:10.37,2013-05-11 23:37:00,
2013-05-11 19:42:00,63.3,61.5,29.73,SW,231,1.5,4.0,94,0.02,-RA,,0.09,WeatherDisplay:10.37,2013-05-11 23:42:00,
2013-05-11 19:47:00,63.2,61.4,29.73,SSW,211,1.1,2.3,94,0.01,-RA,,0.09,WeatherDisplay:10.37,2013-05-11 23:47:00,
2013-05-11 19:52:00,63.1,61.3,29.73,SE,142,0.8,3.5,94,0.01,-RA,,0.09,WeatherDisplay:10.37,2013-05-11 23:52:00,
2013-05-11 19:57:00,63.0,61.2,29.73,SW,215,0.2,1.0,94,0.01,-RA,,0.09,WeatherDisplay:10.37,2013-05-11 23:57:00,
2013-05-11 20:02:00,63.0,61.2,29.72,SSW,212,0.9,3.0,94,0.01,BKN,,0.09,WeatherDisplay:10.37,2013-05-12 00:02:00,
2013-05-11 20:07:00,62.9,61.1,29.72,SW,221,0.5,1.2,94,0.01,BKN,,0.09,WeatherDisplay:10.37,2013-05-12 00:07:00,
2013-05-11 20:12:00,62.8,61.0,29.72,SSW,197,0.1,2.3,94,0.01,BKN,,0.09,WeatherDisplay:10.37,2013-05-12 00:12:00,
2013-05-11 20:17:00,62.7,60.9,29.71,SW,225,0.9,2.3,94,0.01,BKN,,0.09,WeatherDisplay:10.37,2013-05-12 00:17:00,
2013-05-11 20:22:00,62.6,60.8,29.72,SW,221,0.3,0.0,94,0.01,BKN,,0.09,WeatherDisplay:10.37,2013-05-12 00:22:00,
2013-05-11 20:27:00,62.5,60.7,29.72,South,177,1.5,2.0,94,0.00,BKN,,0.09,WeatherDisplay:10.37,2013-05-12 00:27:00,
2013-05-11 20:32:00,62.5,60.7,29.72,South,175,0.3,1.2,94,0.00,BKN,,0.09,WeatherDisplay:10.37,2013-05-12 00:32:00,
2013-05-11 20:37:00,62.4,60.7,29.72,South,178,0.0,0.0,94,0.00,BKN,,0.09,WeatherDisplay:10.37,2013-05-12 00:37:00,
2013-05-11 20:42:00,62.3,60.6,29.72,SSW,198,0.9,1.2,94,0.00,BKN,,0.09,WeatherDisplay:10.37,2013-05-12 00:42:00,
2013-05-11 20:47:00,62.3,60.6,29.72,SSE,159,0.8,3.5,94,0.00,BKN,,0.09,WeatherDisplay:10.37,2013-05-12 00:47:00,
2013-05-11 20:52:00,62.2,60.8,29.71,SSE,162,2.4,6.0,95,0.00,BKN,,0.09,WeatherDisplay:10.37,2013-05-12 00:52:00,
2013-05-11 20:57:00,62.2,60.8,29.71,SSW,200,2.7,3.5,95,0.00,BKN,,0.09,WeatherDisplay:10.37,2013-05-12 00:57:00,
2013-05-11 21:02:00,62.2,60.8,29.71,SSE,167,1.8,8.1,95,0.00,BKN,,0.09,WeatherDisplay:10.37,2013-05-12 01:02:00,
2013-05-11 21:07:00,62.1,60.7,29.71,ESE,122,3.4,5.8,95,0.00,BKN,,0.09,WeatherDisplay:10.37,2013-05-12 01:07:00,
2013-05-11 21:12:00,62.1,60.7,29.72,SSE,147,2.5,5.8,95,0.00,BKN,,0.09,WeatherDisplay:10.37,2013-05-12 01:12:00,
2013-05-11 21:17:00,62.1,60.7,29.70,ESE,106,2.0,3.5,95,0.00,OVC,,0.09,WeatherDisplay:10.37,2013-05-12 01:17:00,
2013-05-11 21:22:00,62.1,60.7,29.70,SW,225,1.7,2.3,95,0.00,OVC,,0.09,WeatherDisplay:10.37,2013-05-12 01:22:00,
2013-05-11 21:27:00,62.0,60.3,29.71,SSW,210,0.0,1.2,94,0.00,OVC,,0.09,WeatherDisplay:10.37,2013-05-12 01:27:00,
2013-05-11 21:32:00,62.0,60.6,29.70,South,174,0.1,2.3,95,0.00,OVC,,0.09,WeatherDisplay:10.37,2013-05-12 01:32:00,
2013-05-11 21:37:00,62.0,60.6,29.70,South,175,0.0,1.2,95,0.00,OVC,,0.09,WeatherDisplay:10.37,2013-05-12 01:37:00,
2013-05-11 21:42:00,62.0,60.6,29.70,South,175,0.1,1.0,95,0.00,OVC,,0.09,WeatherDisplay:10.37,2013-05-12 01:42:00,
2013-05-11 21:47:00,62.0,60.6,29.71,SSE,167,0.9,2.3,95,0.00,OVC,,0.09,WeatherDisplay:10.37,2013-05-12 01:47:00,
2013-05-11 21:52:00,61.9,60.5,29.70,SSE,168,0.0,0.0,95,0.00,OVC,,0.09,WeatherDisplay:10.37,2013-05-12 01:52:00,
2013-05-11 21:57:00,61.9,60.5,29.71,SSE,168,0.0,0.0,95,0.00,OVC,,0.09,WeatherDisplay:10.37,2013-05-12 01:57:00,
2013-05-11 22:02:00,61.9,60.5,29.70,South,171,1.1,4.0,95,0.00,OVC,,0.09,WeatherDisplay:10.37,2013-05-12 02:02:00,
2013-05-11 22:07:00,61.9,60.5,29.70,South,182,0.7,2.0,95,0.00,OVC,,0.09,WeatherDisplay:10.37,2013-05-12 02:07:00,
2013-05-11 22:12:00,61.9,60.5,29.71,East,100,0.2,1.2,95,0.00,OVC,,0.09,WeatherDisplay:10.37,2013-05-12 02:12:00,
2013-05-11 22:17:00,61.9,60.5,29.70,ESE,109,0.3,1.2,95,0.00,OVC,,0.09,WeatherDisplay:10.37,2013-05-12 02:17:00,
2013-05-11 22:22:00,61.9,60.5,29.70,SSE,161,0.0,0.0,95,0.00,OVC,,0.09,WeatherDisplay:10.37,2013-05-12 02:22:00,
2013-05-11 22:27:00,62.0,60.6,29.70,SSE,161,0.0,1.2,95,0.00,OVC,,0.09,WeatherDisplay:10.37,2013-05-12 02:27:00,
2013-05-11 22:32:00,61.9,60.5,29.70,SSE,161,0.0,0.0,95,0.00,OVC,,0.09,WeatherDisplay:10.37,2013-05-12 02:32:00,
2013-05-11 22:37:00,61.9,60.5,29.70,SSE,161,0.0,0.0,95,0.00,OVC,,0.09,WeatherDisplay:10.37,2013-05-12 02:37:00,
2013-05-11 22:42:00,61.9,60.5,29.70,SSW,198,0.0,0.0,95,0.00,OVC,,0.09,WeatherDisplay:10.37,2013-05-12 02:42:00,
2013-05-11 22:47:00,61.9,60.5,29.70,SSW,198,0.0,1.2,95,0.00,OVC,,0.09,WeatherDisplay:10.37,2013-05-12 02:47:00,
2013-05-11 22:52:00,61.9,60.7,29.69,SSE,166,0.0,1.2,96,0.00,OVC,,0.09,WeatherDisplay:10.37,2013-05-12 02:52:00,
2013-05-11 22:57:00,61.9,60.5,29.69,SE,124,0.8,3.0,95,0.00,OVC,,0.09,WeatherDisplay:10.37,2013-05-12 02:57:00,
2013-05-11 23:02:00,61.9,60.5,29.70,South,180,0.1,1.2,95,0.00,OVC,,0.09,WeatherDisplay:10.37,2013-05-12 03:02:00,
2013-05-11 23:07:00,61.8,60.4,29.69,SSW,207,1.7,3.5,95,0.00,OVC,,0.09,WeatherDisplay:10.37,2013-05-12 03:07:00,
2013-05-11 23:12:00,61.8,60.4,29.70,SSW,211,0.0,2.3,95,0.00,OVC,,0.09,WeatherDisplay:10.37,2013-05-12 03:12:00,
2013-05-11 23:17:00,61.8,60.4,29.70,WSW,244,0.0,0.0,95,0.00,OVC,,0.09,WeatherDisplay:10.37,2013-05-12 03:17:00,
2013-05-11 23:22:00,61.8,60.6,29.70,SW,214,0.1,1.2,96,0.00,OVC,,0.09,WeatherDisplay:10.37,2013-05-12 03:22:00,
2013-05-11 23:27:00,61.8,60.6,29.70,SW,215,0.1,2.0,96,0.00,OVC,,0.09,WeatherDisplay:10.37,2013-05-12 03:27:00,
2013-05-11 23:32:00,61.7,60.3,29.70,SSE,167,0.6,2.3,95,0.00,OVC,,0.09,WeatherDisplay:10.37,2013-05-12 03:32:00,
2013-05-11 23:37:00,61.7,60.3,29.69,SSE,168,0.0,0.0,95,0.00,OVC,,0.09,WeatherDisplay:10.37,2013-05-12 03:37:00,
2013-05-11 23:42:00,61.7,60.5,29.69,SSW,205,0.0,0.0,96,0.00,OVC,,0.09,WeatherDisplay:10.37,2013-05-12 03:42:00,
2013-05-11 23:47:00,61.7,60.5,29.69,SSW,200,0.0,0.0,96,0.00,OVC,,0.09,WeatherDisplay:10.37,2013-05-12 03:47:00,
2013-05-11 23:52:00,61.6,60.2,29.69,SSW,200,0.0,1.2,95,0.00,OVC,,0.09,WeatherDisplay:10.37,2013-05-12 03:52:00,
2013-05-11 23:57:00,61.6,60.2,29.69,SSW,200,0.6,2.3,95,0.00,OVC,,0.09,WeatherDisplay:10.37,2013-05-12 03:57:00,